sensor_id;sensor_type;location;lat;lon;timestamp;P1;durP1;ratioP1;P2;durP2;ratioP2
21959;SDS011;11144;43.030;25.108;2023-05-18T00:00:57;5.22;;;2.50;;
21959;SDS011;11144;43.030;25.108;2023-05-18T00:02:30;4.47;;;2.55;;
21959;SDS011;11144;43.030;25.108;2023-05-18T00:04:04;4.65;;;2.47;;
21959;SDS011;11144;43.030;25.108;2023-05-18T00:05:39;4.93;;;2.40;;
21959;SDS011;11144;43.030;25.108;2023-05-18T00:07:13;10.05;;;2.95;;
21959;SDS011;11144;43.030;25.108;2023-05-18T00:08:46;6.63;;;2.90;;
21959;SDS011;11144;43.030;25.108;2023-05-18T00:10:19;4.88;;;3.00;;
21959;SDS011;11144;43.030;25.108;2023-05-18T00:11:52;5.53;;;3.00;;
21959;SDS011;11144;43.030;25.108;2023-05-18T00:13:25;5.10;;;2.80;;
21959;SDS011;11144;43.030;25.108;2023-05-18T00:14:58;4.78;;;2.50;;
21959;SDS011;11144;43.030;25.108;2023-05-18T00:16:33;4.28;;;2.33;;
21959;SDS011;11144;43.030;25.108;2023-05-18T00:18:06;11.25;;;2.28;;
21959;SDS011;11144;43.030;25.108;2023-05-18T00:19:41;6.78;;;2.45;;
21959;SDS011;11144;43.030;25.108;2023-05-18T00:21:17;5.43;;;2.60;;
21959;SDS011;11144;43.030;25.108;2023-05-18T00:22:51;6.53;;;2.40;;
21959;SDS011;11144;43.030;25.108;2023-05-18T00:24:24;5.40;;;2.80;;
21959;SDS011;11144;43.030;25.108;2023-05-18T00:25:58;5.65;;;3.08;;
21959;SDS011;11144;43.030;25.108;2023-05-18T00:27:32;9.68;;;2.80;;
21959;SDS011;11144;43.030;25.108;2023-05-18T00:29:05;6.43;;;3.35;;
21959;SDS011;11144;43.030;25.108;2023-05-18T00:30:39;5.53;;;3.08;;
21959;SDS011;11144;43.030;25.108;2023-05-18T00:32:13;6.57;;;3.15;;
21959;SDS011;11144;43.030;25.108;2023-05-18T00:33:46;9.63;;;3.28;;
21959;SDS011;11144;43.030;25.108;2023-05-18T00:35:18;5.78;;;3.70;;
21959;SDS011;11144;43.030;25.108;2023-05-18T00:36:52;7.93;;;2.95;;
21959;SDS011;11144;43.030;25.108;2023-05-18T00:38:24;5.57;;;3.28;;
21959;SDS011;11144;43.030;25.108;2023-05-18T00:39:57;10.00;;;4.32;;
21959;SDS011;11144;43.030;25.108;2023-05-18T00:41:30;6.50;;;3.13;;
21959;SDS011;11144;43.030;25.108;2023-05-18T00:43:03;5.32;;;3.30;;
21959;SDS011;11144;43.030;25.108;2023-05-18T00:44:37;6.35;;;3.35;;
21959;SDS011;11144;43.030;25.108;2023-05-18T00:46:10;9.13;;;3.92;;
21959;SDS011;11144;43.030;25.108;2023-05-18T00:47:45;11.73;;;3.90;;
21959;SDS011;11144;43.030;25.108;2023-05-18T00:49:18;7.35;;;3.30;;
21959;SDS011;11144;43.030;25.108;2023-05-18T00:50:51;5.35;;;3.80;;
21959;SDS011;11144;43.030;25.108;2023-05-18T00:52:26;6.10;;;3.25;;
21959;SDS011;11144;43.030;25.108;2023-05-18T00:54:00;7.03;;;3.15;;
21959;SDS011;11144;43.030;25.108;2023-05-18T00:55:34;6.28;;;3.75;;
21959;SDS011;11144;43.030;25.108;2023-05-18T00:57:08;6.15;;;3.35;;
21959;SDS011;11144;43.030;25.108;2023-05-18T00:58:40;6.30;;;4.15;;
21959;SDS011;11144;43.030;25.108;2023-05-18T01:00:14;6.25;;;3.70;;
21959;SDS011;11144;43.030;25.108;2023-05-18T01:01:48;8.07;;;3.42;;
21959;SDS011;11144;43.030;25.108;2023-05-18T01:03:23;7.85;;;4.03;;
21959;SDS011;11144;43.030;25.108;2023-05-18T01:04:56;5.55;;;3.72;;
21959;SDS011;11144;43.030;25.108;2023-05-18T01:06:31;9.68;;;4.03;;
21959;SDS011;11144;43.030;25.108;2023-05-18T01:08:07;8.38;;;3.92;;
21959;SDS011;11144;43.030;25.108;2023-05-18T01:09:40;6.95;;;3.63;;
21959;SDS011;11144;43.030;25.108;2023-05-18T01:11:16;6.07;;;3.15;;
21959;SDS011;11144;43.030;25.108;2023-05-18T01:12:57;10.10;;;4.63;;
21959;SDS011;11144;43.030;25.108;2023-05-18T01:14:35;6.60;;;3.50;;
21959;SDS011;11144;43.030;25.108;2023-05-18T01:16:14;7.25;;;4.38;;
21959;SDS011;11144;43.030;25.108;2023-05-18T01:18:00;8.85;;;3.65;;
21959;SDS011;11144;43.030;25.108;2023-05-18T01:19:49;7.80;;;4.65;;
21959;SDS011;11144;43.030;25.108;2023-05-18T01:21:50;7.07;;;4.00;;
21959;SDS011;11144;43.030;25.108;2023-05-18T01:23:41;7.20;;;3.45;;
21959;SDS011;11144;43.030;25.108;2023-05-18T01:25:26;6.15;;;3.45;;
21959;SDS011;11144;43.030;25.108;2023-05-18T01:27:05;7.07;;;3.92;;
21959;SDS011;11144;43.030;25.108;2023-05-18T01:28:40;7.13;;;3.85;;
21959;SDS011;11144;43.030;25.108;2023-05-18T01:30:17;8.73;;;4.47;;
21959;SDS011;11144;43.030;25.108;2023-05-18T01:31:51;8.38;;;4.30;;
21959;SDS011;11144;43.030;25.108;2023-05-18T01:33:24;10.05;;;4.72;;
21959;SDS011;11144;43.030;25.108;2023-05-18T01:34:57;6.82;;;4.68;;
21959;SDS011;11144;43.030;25.108;2023-05-18T01:36:31;6.63;;;4.28;;
21959;SDS011;11144;43.030;25.108;2023-05-18T01:38:04;7.20;;;4.55;;
21959;SDS011;11144;43.030;25.108;2023-05-18T01:39:37;11.13;;;5.53;;
21959;SDS011;11144;43.030;25.108;2023-05-18T01:41:11;12.23;;;6.35;;
21959;SDS011;11144;43.030;25.108;2023-05-18T01:42:51;10.43;;;5.43;;
21959;SDS011;11144;43.030;25.108;2023-05-18T01:44:31;13.52;;;5.78;;
21959;SDS011;11144;43.030;25.108;2023-05-18T01:46:10;9.95;;;6.25;;
21959;SDS011;11144;43.030;25.108;2023-05-18T01:47:48;10.38;;;6.00;;
21959;SDS011;11144;43.030;25.108;2023-05-18T01:49:30;12.98;;;6.95;;
21959;SDS011;11144;43.030;25.108;2023-05-18T01:51:05;10.85;;;6.38;;
21959;SDS011;11144;43.030;25.108;2023-05-18T01:52:43;16.25;;;7.00;;
21959;SDS011;11144;43.030;25.108;2023-05-18T01:54:23;11.32;;;6.40;;
21959;SDS011;11144;43.030;25.108;2023-05-18T01:55:58;14.60;;;7.07;;
21959;SDS011;11144;43.030;25.108;2023-05-18T01:57:34;9.02;;;5.60;;
21959;SDS011;11144;43.030;25.108;2023-05-18T01:59:11;10.48;;;5.78;;
21959;SDS011;11144;43.030;25.108;2023-05-18T02:00:45;9.82;;;5.80;;
21959;SDS011;11144;43.030;25.108;2023-05-18T02:02:18;9.75;;;6.25;;
21959;SDS011;11144;43.030;25.108;2023-05-18T02:03:52;13.57;;;6.20;;
21959;SDS011;11144;43.030;25.108;2023-05-18T02:05:26;10.20;;;5.65;;
21959;SDS011;11144;43.030;25.108;2023-05-18T02:06:58;14.93;;;6.07;;
21959;SDS011;11144;43.030;25.108;2023-05-18T02:08:31;9.30;;;5.68;;
21959;SDS011;11144;43.030;25.108;2023-05-18T02:10:04;9.85;;;5.43;;
21959;SDS011;11144;43.030;25.108;2023-05-18T02:11:38;9.63;;;5.88;;
21959;SDS011;11144;43.030;25.108;2023-05-18T02:13:11;12.73;;;6.50;;
21959;SDS011;11144;43.030;25.108;2023-05-18T02:14:45;11.30;;;5.93;;
21959;SDS011;11144;43.030;25.108;2023-05-18T02:16:20;10.70;;;5.85;;
21959;SDS011;11144;43.030;25.108;2023-05-18T02:17:52;9.38;;;6.35;;
21959;SDS011;11144;43.030;25.108;2023-05-18T02:19:28;12.50;;;5.88;;
21959;SDS011;11144;43.030;25.108;2023-05-18T02:21:02;14.13;;;6.68;;
21959;SDS011;11144;43.030;25.108;2023-05-18T02:22:35;10.27;;;5.88;;
21959;SDS011;11144;43.030;25.108;2023-05-18T02:24:09;9.27;;;6.35;;
21959;SDS011;11144;43.030;25.108;2023-05-18T02:25:42;8.45;;;5.63;;
21959;SDS011;11144;43.030;25.108;2023-05-18T02:27:17;11.57;;;6.70;;
21959;SDS011;11144;43.030;25.108;2023-05-18T02:28:52;10.23;;;6.88;;
21959;SDS011;11144;43.030;25.108;2023-05-18T02:30:26;15.35;;;7.95;;
21959;SDS011;11144;43.030;25.108;2023-05-18T02:32:03;12.63;;;7.25;;
21959;SDS011;11144;43.030;25.108;2023-05-18T02:33:37;14.88;;;7.10;;
21959;SDS011;11144;43.030;25.108;2023-05-18T02:35:10;11.57;;;6.68;;
21959;SDS011;11144;43.030;25.108;2023-05-18T02:36:44;14.63;;;8.27;;
21959;SDS011;11144;43.030;25.108;2023-05-18T02:38:19;15.20;;;8.23;;
21959;SDS011;11144;43.030;25.108;2023-05-18T02:39:53;18.23;;;8.27;;
21959;SDS011;11144;43.030;25.108;2023-05-18T02:41:26;12.18;;;7.60;;
21959;SDS011;11144;43.030;25.108;2023-05-18T02:42:59;15.25;;;8.40;;
21959;SDS011;11144;43.030;25.108;2023-05-18T02:44:33;12.48;;;8.02;;
21959;SDS011;11144;43.030;25.108;2023-05-18T02:46:07;15.68;;;7.75;;
21959;SDS011;11144;43.030;25.108;2023-05-18T02:47:40;12.23;;;8.13;;
21959;SDS011;11144;43.030;25.108;2023-05-18T02:49:15;9.88;;;6.93;;
21959;SDS011;11144;43.030;25.108;2023-05-18T02:50:47;15.70;;;8.27;;
21959;SDS011;11144;43.030;25.108;2023-05-18T02:52:20;17.98;;;11.45;;
21959;SDS011;11144;43.030;25.108;2023-05-18T02:53:54;16.23;;;9.88;;
21959;SDS011;11144;43.030;25.108;2023-05-18T02:55:28;17.58;;;11.07;;
21959;SDS011;11144;43.030;25.108;2023-05-18T02:57:10;17.80;;;10.55;;
21959;SDS011;11144;43.030;25.108;2023-05-18T02:59:04;14.70;;;9.57;;
21959;SDS011;11144;43.030;25.108;2023-05-18T03:00:42;15.77;;;9.73;;
21959;SDS011;11144;43.030;25.108;2023-05-18T03:02:16;15.73;;;9.55;;
21959;SDS011;11144;43.030;25.108;2023-05-18T03:03:53;17.45;;;8.75;;
21959;SDS011;11144;43.030;25.108;2023-05-18T03:05:29;14.23;;;9.20;;
21959;SDS011;11144;43.030;25.108;2023-05-18T03:07:03;14.02;;;8.60;;
21959;SDS011;11144;43.030;25.108;2023-05-18T03:08:38;17.67;;;7.95;;
21959;SDS011;11144;43.030;25.108;2023-05-18T03:10:15;12.73;;;7.93;;
21959;SDS011;11144;43.030;25.108;2023-05-18T03:11:48;12.90;;;7.75;;
21959;SDS011;11144;43.030;25.108;2023-05-18T03:13:22;15.95;;;9.00;;
21959;SDS011;11144;43.030;25.108;2023-05-18T03:14:54;19.52;;;9.80;;
21959;SDS011;11144;43.030;25.108;2023-05-18T03:16:28;16.27;;;8.90;;
21959;SDS011;11144;43.030;25.108;2023-05-18T03:18:03;22.80;;;11.07;;
21959;SDS011;11144;43.030;25.108;2023-05-18T03:19:36;21.17;;;10.43;;
21959;SDS011;11144;43.030;25.108;2023-05-18T03:21:09;20.65;;;10.15;;
21959;SDS011;11144;43.030;25.108;2023-05-18T03:22:44;17.20;;;9.32;;
21959;SDS011;11144;43.030;25.108;2023-05-18T03:24:17;18.55;;;10.85;;
21959;SDS011;11144;43.030;25.108;2023-05-18T03:25:53;16.48;;;9.73;;
21959;SDS011;11144;43.030;25.108;2023-05-18T03:27:30;16.08;;;9.35;;
21959;SDS011;11144;43.030;25.108;2023-05-18T03:29:02;15.27;;;8.88;;
21959;SDS011;11144;43.030;25.108;2023-05-18T03:30:36;21.83;;;9.77;;
21959;SDS011;11144;43.030;25.108;2023-05-18T03:32:09;21.92;;;12.30;;
21959;SDS011;11144;43.030;25.108;2023-05-18T03:33:43;18.73;;;10.15;;
21959;SDS011;11144;43.030;25.108;2023-05-18T03:35:16;18.75;;;9.98;;
21959;SDS011;11144;43.030;25.108;2023-05-18T03:36:50;42.03;;;24.08;;
21959;SDS011;11144;43.030;25.108;2023-05-18T03:38:25;22.15;;;12.25;;
21959;SDS011;11144;43.030;25.108;2023-05-18T03:40:10;20.98;;;10.57;;
21959;SDS011;11144;43.030;25.108;2023-05-18T03:41:46;13.50;;;7.93;;
21959;SDS011;11144;43.030;25.108;2023-05-18T03:43:19;15.55;;;7.68;;
21959;SDS011;11144;43.030;25.108;2023-05-18T03:44:56;14.48;;;8.00;;
21959;SDS011;11144;43.030;25.108;2023-05-18T03:46:29;15.90;;;8.43;;
21959;SDS011;11144;43.030;25.108;2023-05-18T03:48:02;12.27;;;7.97;;
21959;SDS011;11144;43.030;25.108;2023-05-18T03:49:37;15.40;;;9.30;;
21959;SDS011;11144;43.030;25.108;2023-05-18T03:51:10;18.02;;;11.32;;
21959;SDS011;11144;43.030;25.108;2023-05-18T03:52:44;22.17;;;11.77;;
21959;SDS011;11144;43.030;25.108;2023-05-18T03:54:17;17.38;;;10.95;;
21959;SDS011;11144;43.030;25.108;2023-05-18T03:55:50;19.52;;;11.35;;
21959;SDS011;11144;43.030;25.108;2023-05-18T03:57:23;20.98;;;11.20;;
21959;SDS011;11144;43.030;25.108;2023-05-18T03:58:56;17.02;;;11.07;;
21959;SDS011;11144;43.030;25.108;2023-05-18T04:00:31;18.13;;;10.48;;
21959;SDS011;11144;43.030;25.108;2023-05-18T04:02:03;18.90;;;11.23;;
21959;SDS011;11144;43.030;25.108;2023-05-18T04:03:38;17.75;;;10.13;;
21959;SDS011;11144;43.030;25.108;2023-05-18T04:05:16;16.80;;;10.50;;
21959;SDS011;11144;43.030;25.108;2023-05-18T04:06:50;13.15;;;8.93;;
21959;SDS011;11144;43.030;25.108;2023-05-18T04:08:23;18.08;;;10.80;;
21959;SDS011;11144;43.030;25.108;2023-05-18T04:09:57;16.95;;;9.57;;
21959;SDS011;11144;43.030;25.108;2023-05-18T04:11:30;18.33;;;10.88;;
21959;SDS011;11144;43.030;25.108;2023-05-18T04:13:02;17.02;;;10.48;;
21959;SDS011;11144;43.030;25.108;2023-05-18T04:14:36;18.27;;;9.93;;
21959;SDS011;11144;43.030;25.108;2023-05-18T04:16:13;12.43;;;8.05;;
21959;SDS011;11144;43.030;25.108;2023-05-18T04:17:47;15.77;;;8.75;;
21959;SDS011;11144;43.030;25.108;2023-05-18T04:19:22;13.88;;;8.40;;
21959;SDS011;11144;43.030;25.108;2023-05-18T04:20:57;16.92;;;9.20;;
21959;SDS011;11144;43.030;25.108;2023-05-18T04:22:30;17.20;;;9.75;;
21959;SDS011;11144;43.030;25.108;2023-05-18T04:24:07;18.90;;;10.38;;
21959;SDS011;11144;43.030;25.108;2023-05-18T04:25:45;20.80;;;9.73;;
21959;SDS011;11144;43.030;25.108;2023-05-18T04:27:20;17.85;;;8.98;;
21959;SDS011;11144;43.030;25.108;2023-05-18T04:28:53;14.13;;;8.45;;
21959;SDS011;11144;43.030;25.108;2023-05-18T04:30:31;15.77;;;8.13;;
21959;SDS011;11144;43.030;25.108;2023-05-18T04:32:06;15.25;;;9.00;;
21959;SDS011;11144;43.030;25.108;2023-05-18T04:33:41;12.73;;;8.13;;
21959;SDS011;11144;43.030;25.108;2023-05-18T04:35:17;10.98;;;7.28;;
21959;SDS011;11144;43.030;25.108;2023-05-18T04:36:52;13.57;;;8.18;;
21959;SDS011;11144;43.030;25.108;2023-05-18T04:38:25;13.00;;;8.20;;
21959;SDS011;11144;43.030;25.108;2023-05-18T04:39:58;19.13;;;7.88;;
21959;SDS011;11144;43.030;25.108;2023-05-18T04:41:35;12.32;;;7.63;;
21959;SDS011;11144;43.030;25.108;2023-05-18T04:43:08;14.60;;;8.27;;
21959;SDS011;11144;43.030;25.108;2023-05-18T04:44:42;11.70;;;7.70;;
21959;SDS011;11144;43.030;25.108;2023-05-18T04:46:15;14.52;;;7.65;;
21959;SDS011;11144;43.030;25.108;2023-05-18T04:47:50;16.67;;;8.27;;
21959;SDS011;11144;43.030;25.108;2023-05-18T04:49:26;9.48;;;6.68;;
21959;SDS011;11144;43.030;25.108;2023-05-18T04:50:58;14.93;;;7.28;;
21959;SDS011;11144;43.030;25.108;2023-05-18T04:52:33;12.10;;;6.35;;
21959;SDS011;11144;43.030;25.108;2023-05-18T04:54:07;11.13;;;6.10;;
21959;SDS011;11144;43.030;25.108;2023-05-18T04:55:40;14.57;;;5.88;;
21959;SDS011;11144;43.030;25.108;2023-05-18T04:57:15;10.07;;;5.97;;
21959;SDS011;11144;43.030;25.108;2023-05-18T04:58:48;8.85;;;6.45;;
21959;SDS011;11144;43.030;25.108;2023-05-18T05:00:22;9.48;;;6.30;;
21959;SDS011;11144;43.030;25.108;2023-05-18T05:01:55;14.15;;;5.72;;
21959;SDS011;11144;43.030;25.108;2023-05-18T05:03:29;14.10;;;6.13;;
21959;SDS011;11144;43.030;25.108;2023-05-18T05:05:03;11.52;;;6.88;;
21959;SDS011;11144;43.030;25.108;2023-05-18T05:06:36;8.30;;;4.40;;
21959;SDS011;11144;43.030;25.108;2023-05-18T05:08:11;13.93;;;5.13;;
21959;SDS011;11144;43.030;25.108;2023-05-18T05:09:44;7.72;;;4.90;;
21959;SDS011;11144;43.030;25.108;2023-05-18T05:11:17;14.05;;;6.72;;
21959;SDS011;11144;43.030;25.108;2023-05-18T05:12:50;16.95;;;8.18;;
21959;SDS011;11144;43.030;25.108;2023-05-18T05:14:24;13.45;;;6.53;;
21959;SDS011;11144;43.030;25.108;2023-05-18T05:15:56;10.00;;;5.50;;
21959;SDS011;11144;43.030;25.108;2023-05-18T05:17:30;8.88;;;5.80;;
21959;SDS011;11144;43.030;25.108;2023-05-18T05:19:03;10.25;;;5.50;;
21959;SDS011;11144;43.030;25.108;2023-05-18T05:20:37;7.75;;;4.85;;
21959;SDS011;11144;43.030;25.108;2023-05-18T05:22:11;14.25;;;5.85;;
21959;SDS011;11144;43.030;25.108;2023-05-18T05:23:45;8.40;;;5.68;;
21959;SDS011;11144;43.030;25.108;2023-05-18T05:25:19;9.30;;;5.18;;
21959;SDS011;11144;43.030;25.108;2023-05-18T05:26:53;11.27;;;5.85;;
21959;SDS011;11144;43.030;25.108;2023-05-18T05:28:26;10.23;;;6.53;;
21959;SDS011;11144;43.030;25.108;2023-05-18T05:30:00;10.63;;;5.75;;
21959;SDS011;11144;43.030;25.108;2023-05-18T05:31:34;10.93;;;6.05;;
21959;SDS011;11144;43.030;25.108;2023-05-18T05:33:07;10.70;;;6.20;;
21959;SDS011;11144;43.030;25.108;2023-05-18T05:34:41;11.38;;;6.07;;
21959;SDS011;11144;43.030;25.108;2023-05-18T05:36:19;10.20;;;6.63;;
21959;SDS011;11144;43.030;25.108;2023-05-18T05:37:52;8.98;;;5.93;;
21959;SDS011;11144;43.030;25.108;2023-05-18T05:39:27;9.80;;;6.63;;
21959;SDS011;11144;43.030;25.108;2023-05-18T05:41:00;10.35;;;6.00;;
21959;SDS011;11144;43.030;25.108;2023-05-18T05:42:36;12.98;;;5.93;;
21959;SDS011;11144;43.030;25.108;2023-05-18T05:44:11;7.78;;;5.97;;
21959;SDS011;11144;43.030;25.108;2023-05-18T05:45:44;9.15;;;5.93;;
21959;SDS011;11144;43.030;25.108;2023-05-18T05:47:18;11.40;;;6.25;;
21959;SDS011;11144;43.030;25.108;2023-05-18T05:48:50;10.27;;;6.28;;
21959;SDS011;11144;43.030;25.108;2023-05-18T05:50:24;11.65;;;6.75;;
21959;SDS011;11144;43.030;25.108;2023-05-18T05:52:02;8.52;;;6.32;;
21959;SDS011;11144;43.030;25.108;2023-05-18T05:53:36;7.57;;;5.50;;
21959;SDS011;11144;43.030;25.108;2023-05-18T05:55:11;11.45;;;5.45;;
21959;SDS011;11144;43.030;25.108;2023-05-18T05:56:44;8.38;;;5.32;;
21959;SDS011;11144;43.030;25.108;2023-05-18T05:58:19;12.93;;;5.53;;
21959;SDS011;11144;43.030;25.108;2023-05-18T06:00:03;9.63;;;5.55;;
21959;SDS011;11144;43.030;25.108;2023-05-18T06:01:51;11.32;;;5.75;;
21959;SDS011;11144;43.030;25.108;2023-05-18T06:03:25;10.10;;;6.13;;
21959;SDS011;11144;43.030;25.108;2023-05-18T06:05:03;11.15;;;5.78;;
21959;SDS011;11144;43.030;25.108;2023-05-18T06:06:36;9.73;;;6.10;;
21959;SDS011;11144;43.030;25.108;2023-05-18T06:08:12;7.80;;;5.13;;
21959;SDS011;11144;43.030;25.108;2023-05-18T06:09:46;9.63;;;5.68;;
21959;SDS011;11144;43.030;25.108;2023-05-18T06:11:23;9.20;;;6.07;;
21959;SDS011;11144;43.030;25.108;2023-05-18T06:12:57;14.45;;;6.40;;
21959;SDS011;11144;43.030;25.108;2023-05-18T06:14:53;9.05;;;4.75;;
21959;SDS011;11144;43.030;25.108;2023-05-18T06:16:28;10.15;;;5.80;;
21959;SDS011;11144;43.030;25.108;2023-05-18T06:18:03;9.43;;;5.20;;
21959;SDS011;11144;43.030;25.108;2023-05-18T06:19:36;7.78;;;5.18;;
21959;SDS011;11144;43.030;25.108;2023-05-18T06:21:10;8.55;;;5.60;;
21959;SDS011;11144;43.030;25.108;2023-05-18T06:22:43;10.10;;;5.65;;
21959;SDS011;11144;43.030;25.108;2023-05-18T06:24:28;8.27;;;5.55;;
21959;SDS011;11144;43.030;25.108;2023-05-18T06:26:19;10.05;;;5.25;;
21959;SDS011;11144;43.030;25.108;2023-05-18T06:28:21;12.77;;;5.63;;
21959;SDS011;11144;43.030;25.108;2023-05-18T06:30:01;10.20;;;5.65;;
21959;SDS011;11144;43.030;25.108;2023-05-18T06:31:45;7.15;;;4.78;;
21959;SDS011;11144;43.030;25.108;2023-05-18T06:33:25;9.27;;;5.28;;
21959;SDS011;11144;43.030;25.108;2023-05-18T06:34:59;12.30;;;5.18;;
21959;SDS011;11144;43.030;25.108;2023-05-18T06:36:32;8.13;;;5.07;;
21959;SDS011;11144;43.030;25.108;2023-05-18T06:38:05;6.93;;;4.57;;
21959;SDS011;11144;43.030;25.108;2023-05-18T06:39:39;8.57;;;4.88;;
21959;SDS011;11144;43.030;25.108;2023-05-18T06:41:12;8.93;;;5.45;;
21959;SDS011;11144;43.030;25.108;2023-05-18T06:42:46;9.32;;;5.22;;
21959;SDS011;11144;43.030;25.108;2023-05-18T06:44:43;9.00;;;4.97;;
21959;SDS011;11144;43.030;25.108;2023-05-18T06:46:22;11.95;;;5.55;;
21959;SDS011;11144;43.030;25.108;2023-05-18T06:48:04;9.32;;;4.88;;
21959;SDS011;11144;43.030;25.108;2023-05-18T06:49:37;8.70;;;4.35;;
21959;SDS011;11144;43.030;25.108;2023-05-18T06:51:11;9.98;;;5.43;;
21959;SDS011;11144;43.030;25.108;2023-05-18T06:52:47;5.90;;;3.90;;
21959;SDS011;11144;43.030;25.108;2023-05-18T06:54:22;6.85;;;3.92;;
21959;SDS011;11144;43.030;25.108;2023-05-18T06:55:55;7.95;;;4.55;;
21959;SDS011;11144;43.030;25.108;2023-05-18T06:57:28;9.60;;;4.32;;
21959;SDS011;11144;43.030;25.108;2023-05-18T06:59:02;8.60;;;4.97;;
21959;SDS011;11144;43.030;25.108;2023-05-18T07:00:38;7.45;;;4.47;;
21959;SDS011;11144;43.030;25.108;2023-05-18T07:02:12;6.95;;;4.68;;
21959;SDS011;11144;43.030;25.108;2023-05-18T07:03:46;8.55;;;4.82;;
21959;SDS011;11144;43.030;25.108;2023-05-18T07:05:19;7.72;;;3.78;;
21959;SDS011;11144;43.030;25.108;2023-05-18T07:06:53;9.07;;;4.10;;
21959;SDS011;11144;43.030;25.108;2023-05-18T07:08:27;10.15;;;4.43;;
21959;SDS011;11144;43.030;25.108;2023-05-18T07:10:01;9.77;;;5.28;;
21959;SDS011;11144;43.030;25.108;2023-05-18T07:11:35;10.23;;;4.63;;
21959;SDS011;11144;43.030;25.108;2023-05-18T07:13:08;10.20;;;4.40;;
21959;SDS011;11144;43.030;25.108;2023-05-18T07:14:41;8.55;;;4.90;;
21959;SDS011;11144;43.030;25.108;2023-05-18T07:16:16;5.75;;;4.43;;
21959;SDS011;11144;43.030;25.108;2023-05-18T07:17:49;8.07;;;4.72;;
21959;SDS011;11144;43.030;25.108;2023-05-18T07:19:23;8.82;;;4.55;;
21959;SDS011;11144;43.030;25.108;2023-05-18T07:20:56;8.18;;;4.22;;
21959;SDS011;11144;43.030;25.108;2023-05-18T07:22:29;6.82;;;4.18;;
21959;SDS011;11144;43.030;25.108;2023-05-18T07:24:03;10.23;;;4.25;;
21959;SDS011;11144;43.030;25.108;2023-05-18T07:25:37;7.47;;;4.65;;
21959;SDS011;11144;43.030;25.108;2023-05-18T07:27:10;6.60;;;4.75;;
21959;SDS011;11144;43.030;25.108;2023-05-18T07:28:43;11.88;;;5.55;;
21959;SDS011;11144;43.030;25.108;2023-05-18T07:30:18;6.15;;;4.60;;
21959;SDS011;11144;43.030;25.108;2023-05-18T07:31:53;10.52;;;4.75;;
21959;SDS011;11144;43.030;25.108;2023-05-18T07:33:26;9.25;;;4.53;;
21959;SDS011;11144;43.030;25.108;2023-05-18T07:35:00;9.88;;;4.53;;
21959;SDS011;11144;43.030;25.108;2023-05-18T07:36:33;6.47;;;4.07;;
21959;SDS011;11144;43.030;25.108;2023-05-18T07:38:06;9.18;;;3.92;;
21959;SDS011;11144;43.030;25.108;2023-05-18T07:39:39;6.47;;;3.92;;
21959;SDS011;11144;43.030;25.108;2023-05-18T07:41:13;8.00;;;4.20;;
21959;SDS011;11144;43.030;25.108;2023-05-18T07:42:46;7.65;;;4.72;;
21959;SDS011;11144;43.030;25.108;2023-05-18T07:44:20;10.10;;;4.88;;
21959;SDS011;11144;43.030;25.108;2023-05-18T07:45:53;13.32;;;4.82;;
21959;SDS011;11144;43.030;25.108;2023-05-18T07:47:28;4.95;;;3.67;;
21959;SDS011;11144;43.030;25.108;2023-05-18T07:49:01;7.78;;;3.70;;
21959;SDS011;11144;43.030;25.108;2023-05-18T07:50:34;5.88;;;4.05;;
21959;SDS011;11144;43.030;25.108;2023-05-18T07:52:08;8.32;;;4.10;;
21959;SDS011;11144;43.030;25.108;2023-05-18T07:53:41;5.93;;;3.22;;
21959;SDS011;11144;43.030;25.108;2023-05-18T07:55:16;8.00;;;2.90;;
21959;SDS011;11144;43.030;25.108;2023-05-18T07:56:49;7.68;;;3.28;;
21959;SDS011;11144;43.030;25.108;2023-05-18T07:58:23;9.05;;;3.60;;
21959;SDS011;11144;43.030;25.108;2023-05-18T07:59:56;6.85;;;3.00;;
21959;SDS011;11144;43.030;25.108;2023-05-18T08:01:30;7.70;;;3.22;;
21959;SDS011;11144;43.030;25.108;2023-05-18T08:03:04;6.90;;;3.05;;
21959;SDS011;11144;43.030;25.108;2023-05-18T08:04:39;4.80;;;3.25;;
21959;SDS011;11144;43.030;25.108;2023-05-18T08:06:12;5.15;;;2.67;;
21959;SDS011;11144;43.030;25.108;2023-05-18T08:07:45;7.10;;;3.00;;
21959;SDS011;11144;43.030;25.108;2023-05-18T08:09:18;10.98;;;4.18;;
21959;SDS011;11144;43.030;25.108;2023-05-18T08:10:52;7.30;;;3.38;;
21959;SDS011;11144;43.030;25.108;2023-05-18T08:12:26;6.30;;;3.38;;
21959;SDS011;11144;43.030;25.108;2023-05-18T08:14:00;5.15;;;3.38;;
21959;SDS011;11144;43.030;25.108;2023-05-18T08:15:33;7.25;;;3.70;;
21959;SDS011;11144;43.030;25.108;2023-05-18T08:17:07;6.55;;;3.80;;
21959;SDS011;11144;43.030;25.108;2023-05-18T08:18:42;7.22;;;3.85;;
21959;SDS011;11144;43.030;25.108;2023-05-18T08:20:16;9.32;;;4.72;;
21959;SDS011;11144;43.030;25.108;2023-05-18T08:21:49;4.68;;;3.53;;
21959;SDS011;11144;43.030;25.108;2023-05-18T08:23:23;6.45;;;3.92;;
21959;SDS011;11144;43.030;25.108;2023-05-18T08:24:56;8.50;;;3.42;;
21959;SDS011;11144;43.030;25.108;2023-05-18T08:26:31;6.25;;;3.80;;
21959;SDS011;11144;43.030;25.108;2023-05-18T08:28:04;4.45;;;2.50;;
21959;SDS011;11144;43.030;25.108;2023-05-18T08:29:38;5.20;;;3.28;;
21959;SDS011;11144;43.030;25.108;2023-05-18T08:31:11;3.78;;;2.80;;
21959;SDS011;11144;43.030;25.108;2023-05-18T08:32:45;3.55;;;2.47;;
21959;SDS011;11144;43.030;25.108;2023-05-18T08:34:19;5.03;;;2.95;;
21959;SDS011;11144;43.030;25.108;2023-05-18T08:35:53;6.65;;;3.15;;
21959;SDS011;11144;43.030;25.108;2023-05-18T08:37:27;4.72;;;3.10;;
21959;SDS011;11144;43.030;25.108;2023-05-18T08:39:01;5.50;;;3.00;;
21959;SDS011;11144;43.030;25.108;2023-05-18T08:40:36;6.10;;;3.15;;
21959;SDS011;11144;43.030;25.108;2023-05-18T08:42:20;6.97;;;3.22;;
21959;SDS011;11144;43.030;25.108;2023-05-18T08:44:04;6.05;;;3.78;;
21959;SDS011;11144;43.030;25.108;2023-05-18T08:45:46;7.00;;;3.65;;
21959;SDS011;11144;43.030;25.108;2023-05-18T08:47:22;7.80;;;3.47;;
21959;SDS011;11144;43.030;25.108;2023-05-18T08:48:57;8.02;;;4.75;;
21959;SDS011;11144;43.030;25.108;2023-05-18T08:50:34;5.70;;;3.28;;
21959;SDS011;11144;43.030;25.108;2023-05-18T08:52:09;5.18;;;3.70;;
21959;SDS011;11144;43.030;25.108;2023-05-18T08:53:50;6.22;;;2.88;;
21959;SDS011;11144;43.030;25.108;2023-05-18T08:55:25;4.70;;;3.10;;
21959;SDS011;11144;43.030;25.108;2023-05-18T08:57:00;8.95;;;4.15;;
21959;SDS011;11144;43.030;25.108;2023-05-18T08:58:36;3.42;;;2.88;;
21959;SDS011;11144;43.030;25.108;2023-05-18T09:00:15;6.72;;;3.22;;
21959;SDS011;11144;43.030;25.108;2023-05-18T09:01:49;10.52;;;4.35;;
21959;SDS011;11144;43.030;25.108;2023-05-18T09:03:23;9.32;;;5.30;;
21959;SDS011;11144;43.030;25.108;2023-05-18T09:04:56;10.35;;;4.30;;
21959;SDS011;11144;43.030;25.108;2023-05-18T09:06:32;6.30;;;3.05;;
21959;SDS011;11144;43.030;25.108;2023-05-18T09:08:06;6.45;;;3.53;;
21959;SDS011;11144;43.030;25.108;2023-05-18T09:09:41;4.25;;;2.55;;
21959;SDS011;11144;43.030;25.108;2023-05-18T09:11:15;3.97;;;3.05;;
21959;SDS011;11144;43.030;25.108;2023-05-18T09:12:50;4.65;;;2.60;;
21959;SDS011;11144;43.030;25.108;2023-05-18T09:14:26;5.65;;;3.28;;
21959;SDS011;11144;43.030;25.108;2023-05-18T09:16:01;4.07;;;2.90;;
21959;SDS011;11144;43.030;25.108;2023-05-18T09:17:34;5.53;;;3.60;;
21959;SDS011;11144;43.030;25.108;2023-05-18T09:19:08;10.38;;;3.95;;
21959;SDS011;11144;43.030;25.108;2023-05-18T09:20:41;8.90;;;4.45;;